sensor_id;sensor_type;location;lat;lon;timestamp;temperature;humidity
40996;DHT22;26723;57.478;12.066;2023-07-31T00:01:47;14.50;99.90
40996;DHT22;26723;57.478;12.066;2023-07-31T00:04:56;14.30;99.90
40996;DHT22;26723;57.478;12.066;2023-07-31T00:08:04;14.30;99.90
40996;DHT22;26723;57.478;12.066;2023-07-31T00:11:13;14.20;99.90
40996;DHT22;26723;57.478;12.066;2023-07-31T00:14:21;14.20;99.90
40996;DHT22;26723;57.478;12.066;2023-07-31T00:17:31;14.20;99.90
40996;DHT22;26723;57.478;12.066;2023-07-31T00:20:41;14.20;99.90
40996;DHT22;26723;57.478;12.066;2023-07-31T00:23:49;14.30;99.90
40996;DHT22;26723;57.478;12.066;2023-07-31T00:26:58;14.20;99.90
40996;DHT22;26723;57.478;12.066;2023-07-31T00:30:07;14.20;99.90
40996;DHT22;26723;57.478;12.066;2023-07-31T00:33:17;14.30;99.90
40996;DHT22;26723;57.478;12.066;2023-07-31T00:36:25;14.30;99.90
40996;DHT22;26723;57.478;12.066;2023-07-31T00:39:34;14.30;99.90
40996;DHT22;26723;57.478;12.066;2023-07-31T00:42:43;14.30;99.90
40996;DHT22;26723;57.478;12.066;2023-07-31T00:45:51;14.30;99.90
40996;DHT22;26723;57.478;12.066;2023-07-31T00:49:01;14.20;99.90
40996;DHT22;26723;57.478;12.066;2023-07-31T00:52:10;14.20;99.90
40996;DHT22;26723;57.478;12.066;2023-07-31T00:55:19;14.20;99.90
40996;DHT22;26723;57.478;12.066;2023-07-31T00:58:28;14.20;99.90
40996;DHT22;26723;57.478;12.066;2023-07-31T01:01:37;14.10;99.90
40996;DHT22;26723;57.478;12.066;2023-07-31T01:04:47;14.10;99.90
40996;DHT22;26723;57.478;12.066;2023-07-31T01:08:02;14.00;99.90
40996;DHT22;26723;57.478;12.066;2023-07-31T01:11:16;14.00;99.90
40996;DHT22;26723;57.478;12.066;2023-07-31T01:14:26;14.10;99.90
40996;DHT22;26723;57.478;12.066;2023-07-31T01:17:34;14.10;99.90
40996;DHT22;26723;57.478;12.066;2023-07-31T01:20:47;14.10;99.90
40996;DHT22;26723;57.478;12.066;2023-07-31T01:24:20;14.10;99.90
40996;DHT22;26723;57.478;12.066;2023-07-31T01:27:35;14.10;99.90
40996;DHT22;26723;57.478;12.066;2023-07-31T01:30:48;14.10;99.90
40996;DHT22;26723;57.478;12.066;2023-07-31T01:33:59;14.10;99.90
40996;DHT22;26723;57.478;12.066;2023-07-31T01:37:08;14.10;99.90
40996;DHT22;26723;57.478;12.066;2023-07-31T01:40:17;14.00;99.90
40996;DHT22;26723;57.478;12.066;2023-07-31T01:43:27;14.10;99.90
40996;DHT22;26723;57.478;12.066;2023-07-31T01:46:35;14.10;99.90
40996;DHT22;26723;57.478;12.066;2023-07-31T01:49:44;14.10;99.90
40996;DHT22;26723;57.478;12.066;2023-07-31T01:52:53;14.10;99.90
40996;DHT22;26723;57.478;12.066;2023-07-31T01:56:04;14.00;99.90
40996;DHT22;26723;57.478;12.066;2023-07-31T01:59:14;14.10;99.90
40996;DHT22;26723;57.478;12.066;2023-07-31T02:02:23;14.10;99.90
40996;DHT22;26723;57.478;12.066;2023-07-31T02:05:32;14.00;99.90
40996;DHT22;26723;57.478;12.066;2023-07-31T02:08:41;14.10;99.90
40996;DHT22;26723;57.478;12.066;2023-07-31T02:11:52;14.10;99.90
40996;DHT22;26723;57.478;12.066;2023-07-31T02:15:03;14.20;99.90
40996;DHT22;26723;57.478;12.066;2023-07-31T02:18:11;14.20;99.90
40996;DHT22;26723;57.478;12.066;2023-07-31T02:21:20;14.20;99.90
40996;DHT22;26723;57.478;12.066;2023-07-31T02:24:28;14.20;99.90
40996;DHT22;26723;57.478;12.066;2023-07-31T02:27:37;14.20;99.90
40996;DHT22;26723;57.478;12.066;2023-07-31T02:30:47;14.20;99.90
40996;DHT22;26723;57.478;12.066;2023-07-31T02:33:58;14.10;99.90
40996;DHT22;26723;57.478;12.066;2023-07-31T02:37:06;14.10;99.90
40996;DHT22;26723;57.478;12.066;2023-07-31T02:40:15;14.00;99.90
40996;DHT22;26723;57.478;12.066;2023-07-31T02:43:24;14.00;99.90
40996;DHT22;26723;57.478;12.066;2023-07-31T02:46:34;14.00;99.90
40996;DHT22;26723;57.478;12.066;2023-07-31T02:49:43;14.00;99.90
40996;DHT22;26723;57.478;12.066;2023-07-31T02:52:51;14.00;99.90
40996;DHT22;26723;57.478;12.066;2023-07-31T02:56:01;14.00;99.90
40996;DHT22;26723;57.478;12.066;2023-07-31T02:59:10;14.00;99.90
40996;DHT22;26723;57.478;12.066;2023-07-31T03:02:20;13.90;99.90
40996;DHT22;26723;57.478;12.066;2023-07-31T03:05:29;13.90;99.90
40996;DHT22;26723;57.478;12.066;2023-07-31T03:08:38;14.00;99.90
40996;DHT22;26723;57.478;12.066;2023-07-31T03:11:46;13.90;99.90
40996;DHT22;26723;57.478;12.066;2023-07-31T03:14:55;13.90;99.90
40996;DHT22;26723;57.478;12.066;2023-07-31T03:18:05;13.90;99.90
40996;DHT22;26723;57.478;12.066;2023-07-31T03:21:14;13.90;99.90
40996;DHT22;26723;57.478;12.066;2023-07-31T03:24:23;13.90;99.90
40996;DHT22;26723;57.478;12.066;2023-07-31T03:27:31;14.00;99.90
40996;DHT22;26723;57.478;12.066;2023-07-31T03:30:40;14.00;99.90
40996;DHT22;26723;57.478;12.066;2023-07-31T03:33:50;13.90;99.90
40996;DHT22;26723;57.478;12.066;2023-07-31T03:36:58;13.90;99.90
40996;DHT22;26723;57.478;12.066;2023-07-31T03:40:08;13.90;99.90
40996;DHT22;26723;57.478;12.066;2023-07-31T03:43:16;13.90;99.90
40996;DHT22;26723;57.478;12.066;2023-07-31T03:46:25;13.90;99.90
40996;DHT22;26723;57.478;12.066;2023-07-31T03:49:35;13.90;99.90
40996;DHT22;26723;57.478;12.066;2023-07-31T03:52:44;14.00;99.90
40996;DHT22;26723;57.478;12.066;2023-07-31T03:55:52;13.90;99.90
40996;DHT22;26723;57.478;12.066;2023-07-31T03:59:01;14.00;99.90
40996;DHT22;26723;57.478;12.066;2023-07-31T04:02:09;14.00;99.90
40996;DHT22;26723;57.478;12.066;2023-07-31T04:05:19;14.00;99.90
40996;DHT22;26723;57.478;12.066;2023-07-31T04:08:28;14.00;99.90
40996;DHT22;26723;57.478;12.066;2023-07-31T04:11:36;13.90;99.90
40996;DHT22;26723;57.478;12.066;2023-07-31T04:14:46;13.90;99.90
40996;DHT22;26723;57.478;12.066;2023-07-31T04:17:55;14.00;99.90
40996;DHT22;26723;57.478;12.066;2023-07-31T04:21:05;14.10;99.90
40996;DHT22;26723;57.478;12.066;2023-07-31T04:24:13;14.00;99.90
40996;DHT22;26723;57.478;12.066;2023-07-31T04:27:22;14.00;99.90
40996;DHT22;26723;57.478;12.066;2023-07-31T04:30:31;14.00;99.90
40996;DHT22;26723;57.478;12.066;2023-07-31T04:33:39;14.10;99.90
40996;DHT22;26723;57.478;12.066;2023-07-31T04:36:49;14.10;99.90
40996;DHT22;26723;57.478;12.066;2023-07-31T04:39:57;14.10;99.90
40996;DHT22;26723;57.478;12.066;2023-07-31T04:43:06;14.10;99.90
40996;DHT22;26723;57.478;12.066;2023-07-31T04:46:15;14.10;99.90
40996;DHT22;26723;57.478;12.066;2023-07-31T04:49:23;14.20;99.90
40996;DHT22;26723;57.478;12.066;2023-07-31T04:52:34;14.30;99.90
40996;DHT22;26723;57.478;12.066;2023-07-31T04:55:42;14.30;99.90
40996;DHT22;26723;57.478;12.066;2023-07-31T04:58:51;14.30;99.90
40996;DHT22;26723;57.478;12.066;2023-07-31T05:02:00;14.40;99.90
40996;DHT22;26723;57.478;12.066;2023-07-31T05:05:08;14.40;99.90
40996;DHT22;26723;57.478;12.066;2023-07-31T05:08:18;14.50;99.90
40996;DHT22;26723;57.478;12.066;2023-07-31T05:11:27;14.50;99.90
40996;DHT22;26723;57.478;12.066;2023-07-31T05:14:35;14.50;99.90
40996;DHT22;26723;57.478;12.066;2023-07-31T05:17:44;14.60;99.90
40996;DHT22;26723;57.478;12.066;2023-07-31T05:20:52;14.70;99.90
40996;DHT22;26723;57.478;12.066;2023-07-31T05:24:02;14.90;99.90
40996;DHT22;26723;57.478;12.066;2023-07-31T05:27:11;15.00;99.90
40996;DHT22;26723;57.478;12.066;2023-07-31T05:30:22;15.10;99.90
40996;DHT22;26723;57.478;12.066;2023-07-31T05:33:30;15.30;99.90
40996;DHT22;26723;57.478;12.066;2023-07-31T05:36:39;15.40;99.90
40996;DHT22;26723;57.478;12.066;2023-07-31T05:39:49;15.60;99.90
40996;DHT22;26723;57.478;12.066;2023-07-31T05:42:58;15.60;99.90
40996;DHT22;26723;57.478;12.066;2023-07-31T05:46:07;15.60;99.90
40996;DHT22;26723;57.478;12.066;2023-07-31T05:49:16;15.40;99.90
40996;DHT22;26723;57.478;12.066;2023-07-31T05:52:24;15.50;99.90
40996;DHT22;26723;57.478;12.066;2023-07-31T05:55:34;15.60;99.90
40996;DHT22;26723;57.478;12.066;2023-07-31T05:58:43;15.50;99.90
40996;DHT22;26723;57.478;12.066;2023-07-31T06:01:51;15.40;99.90
40996;DHT22;26723;57.478;12.066;2023-07-31T06:05:00;15.50;99.90
40996;DHT22;26723;57.478;12.066;2023-07-31T06:08:09;15.50;99.90
40996;DHT22;26723;57.478;12.066;2023-07-31T06:11:19;15.50;99.90
40996;DHT22;26723;57.478;12.066;2023-07-31T06:14:28;15.50;99.90
40996;DHT22;26723;57.478;12.066;2023-07-31T06:17:36;15.50;99.90
40996;DHT22;26723;57.478;12.066;2023-07-31T06:20:45;15.40;99.90
40996;DHT22;26723;57.478;12.066;2023-07-31T06:23:54;15.40;99.90
40996;DHT22;26723;57.478;12.066;2023-07-31T06:27:05;15.30;99.90
40996;DHT22;26723;57.478;12.066;2023-07-31T06:30:14;15.30;99.90
40996;DHT22;26723;57.478;12.066;2023-07-31T06:33:22;15.20;99.90
40996;DHT22;26723;57.478;12.066;2023-07-31T06:36:31;15.20;99.90
40996;DHT22;26723;57.478;12.066;2023-07-31T06:39:39;15.20;99.90
40996;DHT22;26723;57.478;12.066;2023-07-31T06:42:49;15.20;99.90
40996;DHT22;26723;57.478;12.066;2023-07-31T06:45:57;15.20;99.90
40996;DHT22;26723;57.478;12.066;2023-07-31T06:49:06;15.10;99.90
40996;DHT22;26723;57.478;12.066;2023-07-31T06:52:14;15.10;99.90
40996;DHT22;26723;57.478;12.066;2023-07-31T06:55:24;15.10;99.90
40996;DHT22;26723;57.478;12.066;2023-07-31T06:58:34;15.10;99.90
40996;DHT22;26723;57.478;12.066;2023-07-31T07:01:42;15.10;99.90
40996;DHT22;26723;57.478;12.066;2023-07-31T07:04:51;15.00;99.90
40996;DHT22;26723;57.478;12.066;2023-07-31T07:07:59;15.00;99.90
40996;DHT22;26723;57.478;12.066;2023-07-31T07:11:07;14.90;99.90
40996;DHT22;26723;57.478;12.066;2023-07-31T07:14:18;14.70;99.90
40996;DHT22;26723;57.478;12.066;2023-07-31T07:17:28;14.60;99.90
40996;DHT22;26723;57.478;12.066;2023-07-31T07:20:38;14.60;99.90
40996;DHT22;26723;57.478;12.066;2023-07-31T07:23:46;14.60;99.90
40996;DHT22;26723;57.478;12.066;2023-07-31T07:26:55;14.60;99.90
40996;DHT22;26723;57.478;12.066;2023-07-31T07:30:06;14.50;99.90
40996;DHT22;26723;57.478;12.066;2023-07-31T07:33:15;14.60;99.90
40996;DHT22;26723;57.478;12.066;2023-07-31T07:36:23;14.60;99.90
40996;DHT22;26723;57.478;12.066;2023-07-31T07:39:32;14.60;99.90
40996;DHT22;26723;57.478;12.066;2023-07-31T07:42:40;14.60;99.90
40996;DHT22;26723;57.478;12.066;2023-07-31T07:45:50;14.50;99.90
40996;DHT22;26723;57.478;12.066;2023-07-31T07:48:59;14.50;99.90
40996;DHT22;26723;57.478;12.066;2023-07-31T07:52:07;14.50;99.90
40996;DHT22;26723;57.478;12.066;2023-07-31T07:55:16;14.50;99.90
40996;DHT22;26723;57.478;12.066;2023-07-31T07:58:25;14.40;99.90
40996;DHT22;26723;57.478;12.066;2023-07-31T08:01:35;14.40;99.90
40996;DHT22;26723;57.478;12.066;2023-07-31T08:04:43;14.30;99.90
40996;DHT22;26723;57.478;12.066;2023-07-31T08:07:52;14.30;99.90
40996;DHT22;26723;57.478;12.066;2023-07-31T08:11:00;14.20;99.90
40996;DHT22;26723;57.478;12.066;2023-07-31T08:14:09;14.10;99.90
40996;DHT22;26723;57.478;12.066;2023-07-31T08:17:19;14.00;99.90
40996;DHT22;26723;57.478;12.066;2023-07-31T08:20:27;14.00;99.90
40996;DHT22;26723;57.478;12.066;2023-07-31T08:23:36;14.00;99.90
40996;DHT22;26723;57.478;12.066;2023-07-31T08:26:44;14.00;99.90
40996;DHT22;26723;57.478;12.066;2023-07-31T08:29:53;14.10;99.90
40996;DHT22;26723;57.478;12.066;2023-07-31T08:33:03;14.10;99.90
40996;DHT22;26723;57.478;12.066;2023-07-31T08:36:11;14.20;99.90
40996;DHT22;26723;57.478;12.066;2023-07-31T08:39:20;14.20;99.90
40996;DHT22;26723;57.478;12.066;2023-07-31T08:42:28;14.20;99.90
40996;DHT22;26723;57.478;12.066;2023-07-31T08:45:38;14.30;99.90
40996;DHT22;26723;57.478;12.066;2023-07-31T08:48:51;14.20;99.90
40996;DHT22;26723;57.478;12.066;2023-07-31T08:52:00;14.30;99.90
40996;DHT22;26723;57.478;12.066;2023-07-31T08:55:10;14.40;99.90
40996;DHT22;26723;57.478;12.066;2023-07-31T08:58:18;14.50;99.90
40996;DHT22;26723;57.478;12.066;2023-07-31T09:01:30;14.60;99.90
40996;DHT22;26723;57.478;12.066;2023-07-31T09:04:41;14.60;99.90
40996;DHT22;26723;57.478;12.066;2023-07-31T09:07:50;14.70;99.90
40996;DHT22;26723;57.478;12.066;2023-07-31T09:11:00;14.80;99.90
40996;DHT22;26723;57.478;12.066;2023-07-31T09:14:10;14.90;99.90
40996;DHT22;26723;57.478;12.066;2023-07-31T09:17:29;14.90;99.90
40996;DHT22;26723;57.478;12.066;2023-07-31T09:20:39;15.10;99.90
40996;DHT22;26723;57.478;12.066;2023-07-31T09:23:48;15.10;99.90
40996;DHT22;26723;57.478;12.066;2023-07-31T09:26:57;15.20;99.90
40996;DHT22;26723;57.478;12.066;2023-07-31T09:30:07;15.30;99.90
40996;DHT22;26723;57.478;12.066;2023-07-31T09:33:17;15.50;99.90
40996;DHT22;26723;57.478;12.066;2023-07-31T09:36:29;15.30;99.90
40996;DHT22;26723;57.478;12.066;2023-07-31T09:39:46;15.30;99.90
40996;DHT22;26723;57.478;12.066;2023-07-31T09:42:57;15.40;99.90
40996;DHT22;26723;57.478;12.066;2023-07-31T09:46:13;15.50;99.90
40996;DHT22;26723;57.478;12.066;2023-07-31T09:49:25;15.80;99.90
40996;DHT22;26723;57.478;12.066;2023-07-31T09:52:38;16.30;99.90
40996;DHT22;26723;57.478;12.066;2023-07-31T09:55:47;16.70;99.90
40996;DHT22;26723;57.478;12.066;2023-07-31T09:58:56;17.30;99.90
40996;DHT22;26723;57.478;12.066;2023-07-31T10:02:05;17.20;99.90
40996;DHT22;26723;57.478;12.066;2023-07-31T10:05:16;17.20;99.90
40996;DHT22;26723;57.478;12.066;2023-07-31T10:08:30;17.60;99.90
40996;DHT22;26723;57.478;12.066;2023-07-31T10:11:42;18.10;99.90
40996;DHT22;26723;57.478;12.066;2023-07-31T10:14:54;18.80;99.90
40996;DHT22;26723;57.478;12.066;2023-07-31T10:18:02;18.90;99.90
40996;DHT22;26723;57.478;12.066;2023-07-31T10:21:14;19.10;99.90
40996;DHT22;26723;57.478;12.066;2023-07-31T10:24:24;18.60;99.90
40996;DHT22;26723;57.478;12.066;2023-07-31T10:27:35;18.20;99.90
40996;DHT22;26723;57.478;12.066;2023-07-31T10:30:44;17.80;99.90
40996;DHT22;26723;57.478;12.066;2023-07-31T10:33:54;18.00;99.90
40996;DHT22;26723;57.478;12.066;2023-07-31T10:37:24;18.00;99.90
40996;DHT22;26723;57.478;12.066;2023-07-31T10:40:34;17.90;99.90
40996;DHT22;26723;57.478;12.066;2023-07-31T10:43:46;17.80;99.90
40996;DHT22;26723;57.478;12.066;2023-07-31T10:46:55;17.70;99.90
40996;DHT22;26723;57.478;12.066;2023-07-31T10:50:16;17.80;99.90
40996;DHT22;26723;57.478;12.066;2023-07-31T10:53:29;17.80;99.90
40996;DHT22;26723;57.478;12.066;2023-07-31T10:56:39;17.80;99.90
40996;DHT22;26723;57.478;12.066;2023-07-31T10:59:48;17.60;99.90
40996;DHT22;26723;57.478;12.066;2023-07-31T11:03:05;17.80;99.90
40996;DHT22;26723;57.478;12.066;2023-07-31T11:06:14;18.50;99.90
40996;DHT22;26723;57.478;12.066;2023-07-31T11:09:28;18.90;99.90
40996;DHT22;26723;57.478;12.066;2023-07-31T11:12:39;19.20;99.90
40996;DHT22;26723;57.478;12.066;2023-07-31T11:15:47;18.90;99.90
40996;DHT22;26723;57.478;12.066;2023-07-31T11:18:56;18.50;99.90
40996;DHT22;26723;57.478;12.066;2023-07-31T11:22:05;18.60;99.90
40996;DHT22;26723;57.478;12.066;2023-07-31T11:25:14;18.60;99.90
40996;DHT22;26723;57.478;12.066;2023-07-31T11:28:31;18.50;99.90
40996;DHT22;26723;57.478;12.066;2023-07-31T11:31:42;18.10;99.90
40996;DHT22;26723;57.478;12.066;2023-07-31T11:34:52;17.80;99.90
40996;DHT22;26723;57.478;12.066;2023-07-31T11:38:01;17.70;99.90
40996;DHT22;26723;57.478;12.066;2023-07-31T11:41:10;17.70;99.90
40996;DHT22;26723;57.478;12.066;2023-07-31T11:44:20;17.70;99.90
40996;DHT22;26723;57.478;12.066;2023-07-31T11:47:35;17.60;99.90
40996;DHT22;26723;57.478;12.066;2023-07-31T11:50:45;17.50;99.90
40996;DHT22;26723;57.478;12.066;2023-07-31T11:53:57;17.20;99.90
40996;DHT22;26723;57.478;12.066;2023-07-31T11:57:06;17.20;99.90
40996;DHT22;26723;57.478;12.066;2023-07-31T12:00:17;17.20;99.90
40996;DHT22;26723;57.478;12.066;2023-07-31T12:03:26;17.10;99.90
40996;DHT22;26723;57.478;12.066;2023-07-31T12:06:35;17.10;99.90
40996;DHT22;26723;57.478;12.066;2023-07-31T12:09:53;17.00;99.90
40996;DHT22;26723;57.478;12.066;2023-07-31T12:13:03;17.10;99.90
40996;DHT22;26723;57.478;12.066;2023-07-31T12:16:13;17.00;99.90
40996;DHT22;26723;57.478;12.066;2023-07-31T12:19:22;16.90;99.90
40996;DHT22;26723;57.478;12.066;2023-07-31T12:22:31;16.90;99.90
40996;DHT22;26723;57.478;12.066;2023-07-31T12:25:39;16.60;99.90
40996;DHT22;26723;57.478;12.066;2023-07-31T12:28:49;16.60;99.90
40996;DHT22;26723;57.478;12.066;2023-07-31T12:31:59;16.50;99.90
40996;DHT22;26723;57.478;12.066;2023-07-31T12:35:08;16.50;99.90
40996;DHT22;26723;57.478;12.066;2023-07-31T12:38:17;16.40;99.90
40996;DHT22;26723;57.478;12.066;2023-07-31T12:41:26;16.20;99.90
40996;DHT22;26723;57.478;12.066;2023-07-31T12:44:36;16.30;99.90
40996;DHT22;26723;57.478;12.066;2023-07-31T12:47:46;16.30;99.90
40996;DHT22;26723;57.478;12.066;2023-07-31T12:50:54;16.20;99.90
40996;DHT22;26723;57.478;12.066;2023-07-31T12:54:03;16.10;99.90
40996;DHT22;26723;57.478;12.066;2023-07-31T12:57:11;16.00;99.90
40996;DHT22;26723;57.478;12.066;2023-07-31T13:00:20;16.10;99.90
40996;DHT22;26723;57.478;12.066;2023-07-31T13:03:30;16.30;99.90
40996;DHT22;26723;57.478;12.066;2023-07-31T13:06:38;16.30;99.90
40996;DHT22;26723;57.478;12.066;2023-07-31T13:09:48;16.50;99.90
40996;DHT22;26723;57.478;12.066;2023-07-31T13:12:57;16.60;99.90
40996;DHT22;26723;57.478;12.066;2023-07-31T13:16:05;16.80;99.90
40996;DHT22;26723;57.478;12.066;2023-07-31T13:19:15;16.90;99.90
40996;DHT22;26723;57.478;12.066;2023-07-31T13:22:24;17.00;99.90
40996;DHT22;26723;57.478;12.066;2023-07-31T13:25:33;17.00;99.90
40996;DHT22;26723;57.478;12.066;2023-07-31T13:28:41;17.00;99.90
40996;DHT22;26723;57.478;12.066;2023-07-31T13:31:50;17.20;99.90
40996;DHT22;26723;57.478;12.066;2023-07-31T13:35:00;17.40;99.90
40996;DHT22;26723;57.478;12.066;2023-07-31T13:38:09;17.60;99.90
40996;DHT22;26723;57.478;12.066;2023-07-31T13:41:17;17.70;99.90
40996;DHT22;26723;57.478;12.066;2023-07-31T13:44:26;17.70;99.90
40996;DHT22;26723;57.478;12.066;2023-07-31T13:47:34;17.80;99.90
40996;DHT22;26723;57.478;12.066;2023-07-31T13:50:46;18.00;99.90
40996;DHT22;26723;57.478;12.066;2023-07-31T13:53:54;18.10;99.90
40996;DHT22;26723;57.478;12.066;2023-07-31T13:57:03;18.10;99.90
40996;DHT22;26723;57.478;12.066;2023-07-31T14:00:13;18.00;99.90
40996;DHT22;26723;57.478;12.066;2023-07-31T14:03:22;17.90;99.90
40996;DHT22;26723;57.478;12.066;2023-07-31T14:06:32;18.00;99.90
40996;DHT22;26723;57.478;12.066;2023-07-31T14:09:40;18.00;99.90
40996;DHT22;26723;57.478;12.066;2023-07-31T14:12:49;18.00;99.90
40996;DHT22;26723;57.478;12.066;2023-07-31T14:15:57;18.10;99.90
40996;DHT22;26723;57.478;12.066;2023-07-31T14:19:06;18.00;99.90
40996;DHT22;26723;57.478;12.066;2023-07-31T14:22:27;17.80;99.90
40996;DHT22;26723;57.478;12.066;2023-07-31T14:25:36;17.70;99.90
40996;DHT22;26723;57.478;12.066;2023-07-31T14:28:45;17.70;99.90
40996;DHT22;26723;57.478;12.066;2023-07-31T14:31:53;17.70;99.90
40996;DHT22;26723;57.478;12.066;2023-07-31T14:35:03;17.80;99.90
40996;DHT22;26723;57.478;12.066;2023-07-31T14:38:13;17.90;99.90
40996;DHT22;26723;57.478;12.066;2023-07-31T14:41:21;18.00;99.90
40996;DHT22;26723;57.478;12.066;2023-07-31T14:44:29;18.00;99.90
40996;DHT22;26723;57.478;12.066;2023-07-31T14:47:38;18.00;99.90
40996;DHT22;26723;57.478;12.066;2023-07-31T14:50:46;18.00;99.90
40996;DHT22;26723;57.478;12.066;2023-07-31T14:53:56;18.00;99.90
40996;DHT22;26723;57.478;12.066;2023-07-31T14:57:05;18.00;99.90
40996;DHT22;26723;57.478;12.066;2023-07-31T15:00:14;18.10;99.90
40996;DHT22;26723;57.478;12.066;2023-07-31T15:03:23;18.10;99.90
40996;DHT22;26723;57.478;12.066;2023-07-31T15:06:32;18.20;99.90
40996;DHT22;26723;57.478;12.066;2023-07-31T15:09:42;18.30;99.90
40996;DHT22;26723;57.478;12.066;2023-07-31T15:12:50;18.40;99.90
40996;DHT22;26723;57.478;12.066;2023-07-31T15:15:59;18.40;99.90
40996;DHT22;26723;57.478;12.066;2023-07-31T15:19:08;18.30;99.90
40996;DHT22;26723;57.478;12.066;2023-07-31T15:22:17;18.20;99.90
40996;DHT22;26723;57.478;12.066;2023-07-31T15:25:27;18.10;99.90
40996;DHT22;26723;57.478;12.066;2023-07-31T15:28:35;18.10;99.90
40996;DHT22;26723;57.478;12.066;2023-07-31T15:31:46;18.00;99.90
40996;DHT22;26723;57.478;12.066;2023-07-31T15:34:54;18.00;99.90
40996;DHT22;26723;57.478;12.066;2023-07-31T15:38:03;18.10;99.90
40996;DHT22;26723;57.478;12.066;2023-07-31T15:41:13;18.10;99.90
40996;DHT22;26723;57.478;12.066;2023-07-31T15:44:21;18.10;99.90
40996;DHT22;26723;57.478;12.066;2023-07-31T15:47:30;18.10;99.90
40996;DHT22;26723;57.478;12.066;2023-07-31T15:50:38;18.10;99.90
40996;DHT22;26723;57.478;12.066;2023-07-31T15:53:47;18.10;99.90
40996;DHT22;26723;57.478;12.066;2023-07-31T15:56:57;18.10;99.90
40996;DHT22;26723;57.478;12.066;2023-07-31T16:00:07;18.00;99.90
40996;DHT22;26723;57.478;12.066;2023-07-31T16:03:16;18.00;99.90
40996;DHT22;26723;57.478;12.066;2023-07-31T16:06:27;18.10;99.90
40996;DHT22;26723;57.478;12.066;2023-07-31T16:09:35;18.20;99.90
40996;DHT22;26723;57.478;12.066;2023-07-31T16:12:45;18.20;99.90
40996;DHT22;26723;57.478;12.066;2023-07-31T16:15:55;18.20;99.90
40996;DHT22;26723;57.478;12.066;2023-07-31T16:19:03;18.20;99.90
40996;DHT22;26723;57.478;12.066;2023-07-31T16:22:12;18.10;99.90
40996;DHT22;26723;57.478;12.066;2023-07-31T16:25:20;18.20;99.90
40996;DHT22;26723;57.478;12.066;2023-07-31T16:28:30;18.20;99.90
40996;DHT22;26723;57.478;12.066;2023-07-31T16:31:39;18.20;99.90
40996;DHT22;26723;57.478;12.066;2023-07-31T16:35:03;18.20;99.90
40996;DHT22;26723;57.478;12.066;2023-07-31T16:38:12;18.20;99.90
40996;DHT22;26723;57.478;12.066;2023-07-31T16:41:21;18.20;99.90
40996;DHT22;26723;57.478;12.066;2023-07-31T16:44:32;18.30;99.90
40996;DHT22;26723;57.478;12.066;2023-07-31T16:47:40;18.20;99.90
40996;DHT22;26723;57.478;12.066;2023-07-31T16:50:49;18.20;99.90
40996;DHT22;26723;57.478;12.066;2023-07-31T16:53:58;18.20;99.90
40996;DHT22;26723;57.478;12.066;2023-07-31T16:57:07;18.20;99.90
40996;DHT22;26723;57.478;12.066;2023-07-31T17:00:17;18.20;99.90
40996;DHT22;26723;57.478;12.066;2023-07-31T17:03:26;18.10;99.90
40996;DHT22;26723;57.478;12.066;2023-07-31T17:06:35;18.20;99.90
40996;DHT22;26723;57.478;12.066;2023-07-31T17:09:43;18.10;99.90
40996;DHT22;26723;57.478;12.066;2023-07-31T17:12:52;18.10;99.90
40996;DHT22;26723;57.478;12.066;2023-07-31T17:16:01;18.10;99.90
40996;DHT22;26723;57.478;12.066;2023-07-31T17:19:10;18.30;99.90
40996;DHT22;26723;57.478;12.066;2023-07-31T17:22:19;18.30;99.90
40996;DHT22;26723;57.478;12.066;2023-07-31T17:25:40;18.40;99.90
40996;DHT22;26723;57.478;12.066;2023-07-31T17:28:49;18.40;99.90
40996;DHT22;26723;57.478;12.066;2023-07-31T17:31:59;18.50;99.90
40996;DHT22;26723;57.478;12.066;2023-07-31T17:35:08;18.50;99.90
40996;DHT22;26723;57.478;12.066;2023-07-31T17:38:16;18.50;99.90
40996;DHT22;26723;57.478;12.066;2023-07-31T17:41:25;18.50;99.90
40996;DHT22;26723;57.478;12.066;2023-07-31T17:44:34;18.50;99.90
40996;DHT22;26723;57.478;12.066;2023-07-31T17:47:44;18.40;99.90
40996;DHT22;26723;57.478;12.066;2023-07-31T17:50:53;18.30;99.90
40996;DHT22;26723;57.478;12.066;2023-07-31T17:54:02;18.30;99.90
40996;DHT22;26723;57.478;12.066;2023-07-31T17:57:12;18.30;99.90
40996;DHT22;26723;57.478;12.066;2023-07-31T18:00:20;18.30;99.90
40996;DHT22;26723;57.478;12.066;2023-07-31T18:03:31;18.10;99.90
40996;DHT22;26723;57.478;12.066;2023-07-31T18:06:39;18.00;99.90
40996;DHT22;26723;57.478;12.066;2023-07-31T18:09:48;17.90;99.90
40996;DHT22;26723;57.478;12.066;2023-07-31T18:12:56;17.80;99.90
40996;DHT22;26723;57.478;12.066;2023-07-31T18:16:05;17.70;99.90
40996;DHT22;26723;57.478;12.066;2023-07-31T18:19:15;17.70;99.90
40996;DHT22;26723;57.478;12.066;2023-07-31T18:22:23;17.60;99.90
40996;DHT22;26723;57.478;12.066;2023-07-31T18:25:32;17.60;99.90
40996;DHT22;26723;57.478;12.066;2023-07-31T18:28:40;17.50;99.90
40996;DHT22;26723;57.478;12.066;2023-07-31T18:31:49;17.40;99.90
40996;DHT22;26723;57.478;12.066;2023-07-31T18:34:59;17.50;99.90
40996;DHT22;26723;57.478;12.066;2023-07-31T18:38:07;17.40;99.90
40996;DHT22;26723;57.478;12.066;2023-07-31T18:41:16;17.40;99.90
40996;DHT22;26723;57.478;12.066;2023-07-31T18:44:24;17.30;99.90
40996;DHT22;26723;57.478;12.066;2023-07-31T18:47:33;17.20;99.90
40996;DHT22;26723;57.478;12.066;2023-07-31T18:50:43;17.10;99.90
40996;DHT22;26723;57.478;12.066;2023-07-31T18:53:51;17.00;99.90
40996;DHT22;26723;57.478;12.066;2023-07-31T18:57:00;17.00;99.90
40996;DHT22;26723;57.478;12.066;2023-07-31T19:00:09;17.00;99.90
40996;DHT22;26723;57.478;12.066;2023-07-31T19:03:17;16.90;99.90
40996;DHT22;26723;57.478;12.066;2023-07-31T19:06:27;16.80;99.90
40996;DHT22;26723;57.478;12.066;2023-07-31T19:09:36;16.70;99.90
40996;DHT22;26723;57.478;12.066;2023-07-31T19:12:46;16.60;99.90
40996;DHT22;26723;57.478;12.066;2023-07-31T19:15:54;16.50;99.90
40996;DHT22;26723;57.478;12.066;2023-07-31T19:19:03;16.40;99.90
40996;DHT22;26723;57.478;12.066;2023-07-31T19:22:13;16.30;99.90
40996;DHT22;26723;57.478;12.066;2023-07-31T19:25:21;16.20;99.90
40996;DHT22;26723;57.478;12.066;2023-07-31T19:28:30;16.20;99.90
40996;DHT22;26723;57.478;12.066;2023-07-31T19:31:38;16.10;99.90
40996;DHT22;26723;57.478;12.066;2023-07-31T19:34:47;16.10;99.90
40996;DHT22;26723;57.478;12.066;2023-07-31T19:37:58;16.00;99.90